createdAt,value
2023-03-11T00:18:09.110Z,97541.63
2023-03-11T00:20:39.826Z,97544.91
2023-03-11T00:23:09.085Z,97543.52
2023-03-11T00:25:39.156Z,97539.02
2023-03-11T00:28:07.615Z,97540.62
2023-03-11T00:30:35.985Z,97536.23
2023-03-11T00:33:04.295Z,97537.14
2023-03-11T00:35:34.139Z,97532.95
2023-03-11T00:38:08.118Z,97520.70
2023-03-11T00:40:36.715Z,97516.41
2023-03-11T00:43:04.869Z,97517.61
2023-03-11T00:45:35.125Z,97513.48
2023-03-11T00:48:03.487Z,97513.67
2023-03-11T00:50:33.894Z,97513.97
2023-03-11T00:53:03.091Z,97507.67
2023-03-11T00:55:33.451Z,97503.83
2023-03-11T00:58:05.486Z,97506.14
2023-03-11T01:00:39.934Z,97497.09
2023-03-11T01:03:08.691Z,97495.09
2023-03-11T01:05:36.678Z,97500.86
2023-03-11T01:08:05.342Z,97501.23
2023-03-11T01:10:34.382Z,97501.05
2023-03-11T01:13:03.440Z,97504.80
2023-03-11T01:15:35.060Z,97498.06
2023-03-11T01:18:04.702Z,97498.23
2023-03-11T01:20:35.237Z,97494.47
2023-03-11T01:23:03.406Z,97492.49
2023-03-11T01:25:31.327Z,97488.32
2023-03-11T01:28:00.153Z,97485.05
2023-03-11T01:30:30.260Z,97486.65
2023-03-11T01:32:58.573Z,97487.55
2023-03-11T01:35:28.864Z,97489.29
2023-03-11T01:37:57.956Z,97489.73
2023-03-11T01:40:32.171Z,97484.50
2023-03-11T01:43:06.182Z,97484.15
2023-03-11T01:45:49.731Z,97480.25
2023-03-11T01:48:20.064Z,97478.61
2023-03-11T01:50:50.795Z,97483.86
2023-03-11T01:53:18.815Z,97478.21
2023-03-11T01:55:48.475Z,97474.90
2023-03-11T01:58:23.792Z,97481.59
2023-03-11T02:00:52.890Z,97478.34
2023-03-11T02:03:34.067Z,97477.26
2023-03-11T02:06:06.980Z,97475.85
2023-03-11T02:08:35.856Z,97470.16
2023-03-11T02:11:08.531Z,97466.40
2023-03-11T02:13:37.517Z,97459.87
2023-03-11T02:16:06.053Z,97463.70
2023-03-11T02:18:34.380Z,97462.55
2023-03-11T02:21:24.264Z,97456.89
2023-03-11T02:24:16.193Z,97452.45
2023-03-11T02:26:52.966Z,97454.19
2023-03-11T02:29:23.187Z,97450.50
2023-03-11T02:33:00.010Z,97449.32
2023-03-11T02:35:30.165Z,97445.68
2023-03-11T02:37:58.508Z,97451.92
2023-03-11T02:40:52.150Z,97450.73
2023-03-11T02:43:27.651Z,97452.31
2023-03-11T02:45:56.801Z,97447.92
2023-03-11T02:48:25.457Z,97450.65
2023-03-11T02:50:53.829Z,97449.73
2023-03-11T02:53:22.737Z,97446.07
2023-03-11T02:55:50.608Z,97449.84
2023-03-11T02:58:18.507Z,97451.52
2023-03-11T03:00:46.719Z,97453.48
2023-03-11T03:03:15.940Z,97454.30
2023-03-11T03:05:44.035Z,97446.27
2023-03-11T03:08:11.892Z,97445.10
2023-03-11T03:10:40.255Z,97447.05
2023-03-11T03:13:08.340Z,97449.62
2023-03-11T03:15:36.373Z,97447.98
2023-03-11T03:18:04.493Z,97446.27
2023-03-11T03:20:32.849Z,97443.80
2023-03-11T03:23:02.792Z,97442.70
2023-03-11T03:25:32.397Z,97439.64
2023-03-11T03:28:03.924Z,97439.63
2023-03-11T03:30:33.831Z,97436.03
2023-03-11T03:33:01.905Z,97443.56
2023-03-11T03:35:30.775Z,97447.17
2023-03-11T03:38:11.880Z,97445.14
2023-03-11T03:40:40.113Z,97445.17
2023-03-11T03:43:08.044Z,97443.33
2023-03-11T03:45:36.345Z,97442.89
2023-03-11T03:48:05.147Z,97436.20
2023-03-11T03:50:35.009Z,97437.38
2023-03-11T03:53:03.055Z,97430.05
2023-03-11T03:55:30.881Z,97423.64
2023-03-11T03:57:59.107Z,97417.34
2023-03-11T04:00:29.635Z,97407.39
2023-03-11T04:02:59.438Z,97403.89
2023-03-11T04:05:34.094Z,97401.95
2023-03-11T04:08:02.557Z,97400.52
2023-03-11T04:10:30.635Z,97404.23
2023-03-11T04:12:59.236Z,97413.23
2023-03-11T04:15:27.273Z,97415.05
2023-03-11T04:17:55.208Z,97414.86
2023-03-11T04:20:23.960Z,97414.84
2023-03-11T04:22:52.509Z,97413.94
2023-03-11T04:25:21.256Z,97411.86
2023-03-11T04:27:50.226Z,97411.40
2023-03-11T04:30:18.770Z,97405.46
2023-03-11T04:32:47.648Z,97409.37
2023-03-11T04:35:15.951Z,97413.87
2023-03-11T04:37:44.086Z,97411.60
2023-03-11T04:40:12.866Z,97412.34
2023-03-11T04:42:41.069Z,97413.05
2023-03-11T04:45:11.310Z,97416.39
2023-03-11T04:47:39.916Z,97418.77
2023-03-11T04:50:08.587Z,97419.63
2023-03-11T04:52:36.641Z,97422.13
2023-03-11T04:55:05.326Z,97421.12
2023-03-11T04:57:33.690Z,97427.49
2023-03-11T05:00:02.506Z,97427.08
2023-03-11T05:02:31.312Z,97425.56
2023-03-11T05:05:00.713Z,97420.39
2023-03-11T05:07:28.950Z,97426.88
2023-03-11T05:09:57.213Z,97426.07
2023-03-11T05:12:25.192Z,97425.20
2023-03-11T05:14:53.950Z,97422.82
2023-03-11T05:17:22.481Z,97423.85
2023-03-11T05:19:53.889Z,97421.20
2023-03-11T05:22:28.339Z,97421.44
2023-03-11T05:24:56.217Z,97414.61
2023-03-11T05:27:24.598Z,97416.09
2023-03-11T05:29:54.730Z,97412.79
2023-03-11T05:32:24.044Z,97406.80
2023-03-11T05:34:52.646Z,97404.59
2023-03-11T05:37:20.775Z,97399.29
2023-03-11T05:39:49.366Z,97399.13
2023-03-11T05:42:18.152Z,97401.30
2023-03-11T05:44:47.577Z,97400.16
2023-03-11T05:47:17.394Z,97397.67
2023-03-11T05:49:48.904Z,97397.77
2023-03-11T05:52:18.014Z,97402.70
2023-03-11T05:54:50.463Z,97402.77
2023-03-11T05:57:19.323Z,97406.35
2023-03-11T05:59:47.155Z,97412.23
2023-03-11T06:02:15.698Z,97412.22
2023-03-11T06:04:44.593Z,97413.64
2023-03-11T06:07:14.941Z,97413.92
2023-03-11T06:09:43.715Z,97413.00
2023-03-11T06:12:14.616Z,97416.36
2023-03-11T06:15:02.592Z,97418.02
2023-03-11T06:17:30.770Z,97412.85
2023-03-11T06:19:59.224Z,97415.90
2023-03-11T06:22:27.301Z,97419.34
2023-03-11T06:24:55.886Z,97419.84
2023-03-11T06:27:24.976Z,97418.56
2023-03-11T06:29:54.573Z,97421.65
2023-03-11T06:32:23.304Z,97420.94
2023-03-11T06:34:53.121Z,97426.61
2023-03-11T06:37:23.790Z,97432.56
2023-03-11T06:39:55.562Z,97430.23
2023-03-11T06:42:26.939Z,97431.78
2023-03-11T06:44:56.753Z,97433.61
2023-03-11T06:47:25.029Z,97436.64
2023-03-11T06:49:53.713Z,97438.25
2023-03-11T06:52:21.577Z,97436.60
2023-03-11T06:54:49.945Z,97441.71
2023-03-11T06:57:18.416Z,97439.40
2023-03-11T06:59:47.691Z,97443.53
2023-03-11T07:02:17.130Z,97440.95
2023-03-11T07:04:45.110Z,97444.34
2023-03-11T07:07:13.261Z,97445.95
2023-03-11T07:09:41.415Z,97447.11
2023-03-11T07:12:10.381Z,97450.07
2023-03-11T07:14:38.515Z,97454.60
2023-03-11T07:17:06.883Z,97455.05
2023-03-11T07:19:42.844Z,97460.81
2023-03-11T07:22:11.017Z,97465.27
2023-03-11T07:24:38.967Z,97467.39
2023-03-11T07:27:07.055Z,97471.74
2023-03-11T07:29:35.013Z,97476.72
2023-03-11T07:32:03.041Z,97474.82
2023-03-11T07:34:33.038Z,97474.03
2023-03-11T07:37:01.481Z,97476.38
2023-03-11T07:39:29.685Z,97478.70
2023-03-11T07:41:57.642Z,97476.96
2023-03-11T07:44:32.103Z,97478.69
2023-03-11T07:47:06.217Z,97479.84
2023-03-11T07:49:34.436Z,97483.19
2023-03-11T07:52:02.527Z,97484.45
2023-03-11T07:54:30.404Z,97486.17
2023-03-11T07:57:00.483Z,97485.28
2023-03-11T07:59:29.330Z,97489.64
2023-03-11T08:01:57.975Z,97493.71
2023-03-11T08:04:25.941Z,97492.71
2023-03-11T08:06:53.984Z,97492.65
2023-03-11T08:09:22.285Z,97496.11
2023-03-11T08:11:50.336Z,97500.26
2023-03-11T08:14:18.163Z,97501.91
2023-03-11T08:16:46.003Z,97499.88
2023-03-11T08:19:14.775Z,97502.36
2023-03-11T08:21:42.740Z,97502.71
2023-03-11T08:24:13.375Z,97502.97
2023-03-11T08:26:41.727Z,97509.19
2023-03-11T08:29:09.654Z,97511.36
2023-03-11T08:31:37.807Z,97513.34
2023-03-11T08:34:08.642Z,97521.42
2023-03-11T08:36:36.700Z,97517.70
2023-03-11T08:39:05.187Z,97520.89
2023-03-11T08:41:33.143Z,97527.08
2023-03-11T08:44:01.526Z,97528.39
2023-03-11T08:46:33.965Z,97531.27
2023-03-11T08:49:03.469Z,97530.19
2023-03-11T08:51:33.613Z,97534.41
2023-03-11T08:54:03.473Z,97536.68
2023-03-11T08:56:31.841Z,97537.75
2023-03-11T08:58:59.723Z,97540.97
2023-03-11T09:01:30.068Z,97547.25
2023-03-11T09:03:58.256Z,97548.66
